createdAt,value
2019-04-22T00:01:50.378Z,6.47
2019-04-22T00:04:32.305Z,7.47
2019-04-22T00:07:08.665Z,6.65
2019-04-22T00:09:49.917Z,7.53
2019-04-22T00:12:22.280Z,7.00
2019-04-22T00:14:43.857Z,6.67
2019-04-22T00:17:23.305Z,7.17
2019-04-22T00:19:52.328Z,7.03
2019-04-22T00:22:23.584Z,8.18
2019-04-22T00:24:51.224Z,6.75
2019-04-22T00:27:29.530Z,7.33
2019-04-22T00:30:05.356Z,7.22
2019-04-22T00:32:51.290Z,7.42
2019-04-22T00:35:19.503Z,5.87
2019-04-22T00:37:56.734Z,6.45
2019-04-22T00:40:30.272Z,6.78
2019-04-22T00:42:53.576Z,8.08
2019-04-22T00:45:26.931Z,8.83
2019-04-22T00:48:01.073Z,7.05
2019-04-22T00:53:03.951Z,7.35
2019-04-22T00:55:32.703Z,6.28
2019-04-22T00:58:06.125Z,7.67
2019-04-22T01:00:31.002Z,6.95
2019-04-22T01:03:14.436Z,7.30
2019-04-22T01:05:34.438Z,7.10
2019-04-22T01:08:06.872Z,7.78
2019-04-22T01:10:44.075Z,6.72
2019-04-22T01:13:08.040Z,8.23
2019-04-22T01:15:43.271Z,8.33
2019-04-22T01:18:08.272Z,8.03
2019-04-22T01:23:09.579Z,7.58
2019-04-22T01:25:40.326Z,7.35
2019-04-22T01:28:00.933Z,7.35
2019-04-22T01:30:27.871Z,6.87
2019-04-22T01:32:52.086Z,6.60
2019-04-22T01:35:32.099Z,6.58
2019-04-22T01:38:07.809Z,6.60
2019-04-22T01:40:47.728Z,7.10
2019-04-22T01:43:18.625Z,6.70
2019-04-22T01:45:47.670Z,9.13
2019-04-22T01:48:17.980Z,6.65
2019-04-22T01:50:48.418Z,6.20
2019-04-22T01:53:24.595Z,8.10
2019-04-22T01:55:52.286Z,6.90
2019-04-22T01:58:17.107Z,7.17
2019-04-22T02:00:58.258Z,6.35
2019-04-22T02:03:27.954Z,7.42
2019-04-22T02:05:50.770Z,6.25
2019-04-22T02:08:31.297Z,7.10
2019-04-22T02:10:57.641Z,6.62
2019-04-22T02:13:29.177Z,7.05
2019-04-22T02:16:00.235Z,6.78
2019-04-22T02:18:31.759Z,6.62
2019-04-22T02:20:59.712Z,7.17
2019-04-22T02:26:22.926Z,6.37
2019-04-22T02:28:38.038Z,6.53
2019-04-22T02:31:23.537Z,6.70
2019-04-22T02:43:55.411Z,6.78
2019-04-22T02:51:18.795Z,5.97
2019-04-22T02:54:15.321Z,6.22
2019-04-22T03:01:24.762Z,6.97
2019-04-22T03:04:04.544Z,6.92
2019-04-22T03:11:34.241Z,6.70
2019-04-22T03:16:29.761Z,7.47
2019-04-22T03:24:08.513Z,6.10
2019-04-22T03:26:34.136Z,6.17
2019-04-22T03:39:38.070Z,5.62
2019-04-22T03:47:12.163Z,6.47
2019-04-22T03:49:38.892Z,6.70
2019-04-22T03:52:10.907Z,6.62
2019-04-22T03:57:24.967Z,7.05
2019-04-22T03:59:41.444Z,6.05
2019-04-22T04:04:36.961Z,6.35
2019-04-22T04:07:20.554Z,5.62
2019-04-22T04:17:09.650Z,6.28
2019-04-22T04:19:43.379Z,6.25
2019-04-22T04:22:26.756Z,5.62
2019-04-22T04:24:57.979Z,6.05
2019-04-22T04:27:30.922Z,6.42
2019-04-22T04:32:30.805Z,6.97
2019-04-22T04:37:32.129Z,6.78
2019-04-22T04:39:57.922Z,6.90
2019-04-22T04:47:28.805Z,6.33
2019-04-22T04:52:35.444Z,5.90
2019-04-22T04:57:23.478Z,6.90
2019-04-22T05:02:30.906Z,6.12
2019-04-22T05:07:34.255Z,5.72
2019-04-22T05:09:59.618Z,5.35
2019-04-22T05:12:34.305Z,6.25
2019-04-22T05:14:55.026Z,7.67
2019-04-22T05:17:25.544Z,7.83
2019-04-22T05:19:59.081Z,5.90
2019-04-22T05:22:28.051Z,6.10
2019-04-22T05:24:58.190Z,6.67
2019-04-22T05:27:29.397Z,6.47
2019-04-22T05:30:07.526Z,6.03
2019-04-22T05:32:24.604Z,6.65
2019-04-22T05:34:56.715Z,6.60
2019-04-22T05:37:27.310Z,6.40
2019-04-22T05:39:58.713Z,6.28
2019-04-22T05:42:22.806Z,6.15
2019-04-22T05:47:38.960Z,6.92
2019-04-22T05:50:07.535Z,5.92
2019-04-22T05:52:40.525Z,6.80
2019-04-22T05:55:16.689Z,6.92
2019-04-22T05:57:44.250Z,8.43
2019-04-22T06:00:25.857Z,7.05
2019-04-22T06:02:53.501Z,7.40
2019-04-22T06:05:19.655Z,6.00
2019-04-22T06:07:50.689Z,6.00
2019-04-22T06:10:29.302Z,6.17
2019-04-22T06:12:46.585Z,6.25
2019-04-22T06:15:21.182Z,6.20
2019-04-22T06:17:57.597Z,6.15
2019-04-22T06:20:28.626Z,5.87
2019-04-22T06:25:28.285Z,6.20
2019-04-22T06:27:54.397Z,6.35
2019-04-22T06:33:00.913Z,6.37
2019-04-22T06:38:22.790Z,6.12
2019-04-22T06:43:03.430Z,6.25
2019-04-22T06:45:30.576Z,6.40
2019-04-22T06:50:40.191Z,6.37
2019-04-22T06:53:06.806Z,6.28
2019-04-22T06:55:48.227Z,5.50
2019-04-22T06:58:04.616Z,6.42
2019-04-22T07:00:40.373Z,6.47
2019-04-22T07:03:30.102Z,6.03
2019-04-22T07:05:37.742Z,6.67
2019-04-22T07:08:16.294Z,6.90
2019-04-22T07:13:10.710Z,7.17
2019-04-22T07:18:14.251Z,6.67
2019-04-22T07:20:47.270Z,5.60
2019-04-22T07:23:15.451Z,6.30
2019-04-22T07:25:40.726Z,5.22
2019-04-22T07:28:13.837Z,5.40
2019-04-22T07:30:57.955Z,5.17
2019-04-22T07:38:22.217Z,6.22
2019-04-22T07:40:51.947Z,6.28
2019-04-22T07:43:21.411Z,6.15
2019-04-22T07:46:03.503Z,5.17
2019-04-22T07:48:26.194Z,4.70
2019-04-22T07:50:56.038Z,4.90
2019-04-22T07:53:19.605Z,5.58
2019-04-22T07:55:55.461Z,4.87
2019-04-22T07:58:27.405Z,5.55
2019-04-22T08:00:55.953Z,5.08
2019-04-22T08:03:28.982Z,5.03
2019-04-22T08:06:08.318Z,5.22
2019-04-22T08:08:26.149Z,4.78
2019-04-22T08:10:57.929Z,5.08
2019-04-22T08:13:24.817Z,5.33
2019-04-22T08:15:58.269Z,4.92
2019-04-22T08:18:28.978Z,5.17
2019-04-22T08:20:59.015Z,4.70
2019-04-22T08:23:30.919Z,4.58
2019-04-22T08:25:55.700Z,4.65
2019-04-22T08:28:32.112Z,4.65
2019-04-22T08:31:04.188Z,5.10
2019-04-22T08:38:37.257Z,4.53
2019-04-22T08:41:17.792Z,4.30
2019-04-22T08:43:54.662Z,3.72
2019-04-22T08:46:16.690Z,3.98
2019-04-22T08:48:43.980Z,3.70
2019-04-22T08:51:15.469Z,3.87
2019-04-22T08:53:50.459Z,3.92
2019-04-22T08:58:55.495Z,4.28
2019-04-22T09:03:52.359Z,4.15
2019-04-22T09:06:34.193Z,4.03
2019-04-22T09:08:55.308Z,4.20
2019-04-22T09:11:33.714Z,3.75
2019-04-22T09:13:55.159Z,3.87
2019-04-22T09:16:26.495Z,4.55
2019-04-22T09:18:56.109Z,3.65
2019-04-22T09:21:44.052Z,3.80
2019-04-22T09:24:02.154Z,3.40
2019-04-22T09:26:34.761Z,3.45
2019-04-22T09:28:59.939Z,3.55
2019-04-22T09:31:24.232Z,3.60
2019-04-22T09:33:53.620Z,4.85
2019-04-22T09:39:09.480Z,3.92
2019-04-22T09:41:36.751Z,4.15
2019-04-22T09:46:34.639Z,4.72
2019-04-22T09:49:08.028Z,4.03
2019-04-22T09:51:30.738Z,4.50
2019-04-22T09:54:08.628Z,4.47
2019-04-22T09:56:37.343Z,3.80
2019-04-22T09:59:03.816Z,4.00
2019-04-22T10:04:06.970Z,3.60
2019-04-22T10:06:47.911Z,3.95
2019-04-22T10:11:47.054Z,4.80
2019-04-22T10:14:12.343Z,3.58
2019-04-22T10:16:43.652Z,4.08
2019-04-22T10:19:12.328Z,3.62
2019-04-22T10:21:46.331Z,4.15
2019-04-22T10:24:13.726Z,3.60
2019-04-22T10:31:43.565Z,5.58
2019-04-22T10:34:05.878Z,3.65
2019-04-22T10:36:21.437Z,3.50
2019-04-22T10:38:50.880Z,4.28
2019-04-22T10:41:20.707Z,4.78
2019-04-22T10:43:50.943Z,3.80
2019-04-22T10:48:50.042Z,4.05
2019-04-22T10:53:49.247Z,4.05
2019-04-22T10:56:19.009Z,4.53
2019-04-22T10:58:48.920Z,4.37
2019-04-22T11:01:17.996Z,3.87
2019-04-22T11:03:46.967Z,3.65
2019-04-22T11:06:17.158Z,4.08
2019-04-22T11:11:31.436Z,3.45
2019-04-22T11:13:47.560Z,3.95
2019-04-22T11:16:17.434Z,3.55
2019-04-22T11:18:47.550Z,3.42
2019-04-22T11:21:17.911Z,4.30
2019-04-22T11:23:47.104Z,3.90
2019-04-22T11:26:15.937Z,4.12
2019-04-22T11:28:45.480Z,3.60
2019-04-22T11:31:14.853Z,4.20
2019-04-22T11:33:44.808Z,3.80
2019-04-22T11:36:15.616Z,3.50
2019-04-22T11:38:51.146Z,4.67
2019-04-22T11:41:16.733Z,3.47
2019-04-22T11:43:47.378Z,3.50
2019-04-22T11:46:17.646Z,3.33
2019-04-22T11:51:15.942Z,3.65
2019-04-22T11:53:45.176Z,3.80
2019-04-22T11:56:14.199Z,3.70
2019-04-22T11:58:44.504Z,3.85
2019-04-22T12:01:14.793Z,3.67
2019-04-22T12:06:13.485Z,3.43
2019-04-22T12:08:43.720Z,4.43
2019-04-22T12:11:13.717Z,5.42
2019-04-22T12:13:44.042Z,3.42
2019-04-22T12:16:13.623Z,4.55
2019-04-22T12:18:43.083Z,3.55
2019-04-22T12:21:13.176Z,3.58
2019-04-22T12:23:43.452Z,3.62
2019-04-22T12:28:42.314Z,3.92
2019-04-22T12:31:11.355Z,4.90
2019-04-22T12:33:41.260Z,4.05
2019-04-22T12:36:11.074Z,3.50
2019-04-22T12:38:40.049Z,3.92
2019-04-22T12:41:11.964Z,3.60
2019-04-22T12:43:40.980Z,3.98
2019-04-22T12:46:10.240Z,3.98
2019-04-22T12:48:39.341Z,3.67
2019-04-22T12:51:09.224Z,3.75
2019-04-22T12:53:38.358Z,3.92
2019-04-22T12:56:07.378Z,3.80
2019-04-22T12:58:37.829Z,3.90
2019-04-22T13:01:08.658Z,3.62
2019-04-22T13:03:38.292Z,4.70
2019-04-22T13:06:07.848Z,3.58
2019-04-22T13:08:38.085Z,3.58
2019-04-22T13:13:38.721Z,3.85
2019-04-22T13:16:08.996Z,3.75
2019-04-22T13:21:08.767Z,3.47
2019-04-22T13:23:38.945Z,4.20
2019-04-22T13:28:36.852Z,4.60
2019-04-22T13:31:05.936Z,3.87
2019-04-22T13:33:34.785Z,3.42
2019-04-22T13:36:03.853Z,3.55
2019-04-22T13:38:33.170Z,3.95
2019-04-22T13:41:16.422Z,3.45
2019-04-22T13:43:34.330Z,4.28
2019-04-22T13:46:03.890Z,3.67
2019-04-22T13:48:53.378Z,4.37
2019-04-22T13:51:43.161Z,3.60
2019-04-22T13:56:24.893Z,3.58
2019-04-22T13:58:49.877Z,5.08
2019-04-22T14:01:12.700Z,5.15
2019-04-22T14:04:00.837Z,3.50
2019-04-22T14:06:31.092Z,5.12
2019-04-22T14:11:39.064Z,3.92
2019-04-22T14:14:00.974Z,4.55
2019-04-22T14:16:31.133Z,4.95
2019-04-22T14:19:00.515Z,3.85
2019-04-22T14:21:30.591Z,3.60
2019-04-22T14:26:41.331Z,5.50
2019-04-22T14:28:59.911Z,3.00
2019-04-22T14:31:28.969Z,5.97
2019-04-22T14:34:01.724Z,4.00
2019-04-22T14:36:29.746Z,3.92
2019-04-22T14:38:59.763Z,3.70
2019-04-22T14:41:42.572Z,4.50
2019-04-22T14:45:04.997Z,3.95
2019-04-22T14:47:03.557Z,3.72
2019-04-22T14:49:24.027Z,3.98
2019-04-22T14:51:55.025Z,3.35
2019-04-22T14:54:21.179Z,3.95
2019-04-22T14:56:34.199Z,4.15
2019-04-22T14:59:04.985Z,3.58
2019-04-22T15:01:35.314Z,5.08
2019-04-22T15:04:05.450Z,4.10
2019-04-22T15:06:35.806Z,3.30
2019-04-22T15:09:08.057Z,2.98
2019-04-22T15:11:50.775Z,4.60
2019-04-22T15:14:07.740Z,3.15
2019-04-22T15:16:55.162Z,3.05
2019-04-22T15:19:43.589Z,3.20
2019-04-22T15:22:12.893Z,3.10
2019-04-22T15:24:42.632Z,2.87
2019-04-22T15:27:11.629Z,3.10
2019-04-22T15:29:41.163Z,4.08
2019-04-22T15:32:11.771Z,4.03
2019-04-22T15:34:41.597Z,3.60
2019-04-22T15:37:11.834Z,3.67
2019-04-22T15:39:41.522Z,4.85
2019-04-22T15:42:18.417Z,4.50
2019-04-22T15:44:42.215Z,3.45
2019-04-22T15:47:11.295Z,2.65
2019-04-22T15:49:40.319Z,3.35
2019-04-22T15:52:10.447Z,2.77
2019-04-22T15:57:08.959Z,2.75
2019-04-22T15:59:54.081Z,2.95
2019-04-22T16:02:10.051Z,3.12
2019-04-22T16:04:41.006Z,3.22
2019-04-22T16:07:10.860Z,3.25
2019-04-22T16:09:41.518Z,3.08
2019-04-22T16:12:18.792Z,3.10
2019-04-22T16:14:47.351Z,2.87
2019-04-22T16:17:12.752Z,4.72
2019-04-22T16:19:43.260Z,3.17
2019-04-22T16:22:18.336Z,2.90
2019-04-22T16:24:58.187Z,3.58
2019-04-22T16:27:28.347Z,3.83
2019-04-22T16:29:57.349Z,2.98
2019-04-22T16:32:27.807Z,3.08
2019-04-22T16:34:56.860Z,3.33
2019-04-22T16:37:25.916Z,3.70
2019-04-22T16:39:54.897Z,3.25
2019-04-22T16:42:33.767Z,2.67
2019-04-22T16:44:55.686Z,2.62
2019-04-22T16:47:25.712Z,2.90
2019-04-22T16:52:25.853Z,2.65
2019-04-22T16:54:55.093Z,3.37
2019-04-22T16:57:26.025Z,2.40
2019-04-22T16:59:54.977Z,3.25
2019-04-22T17:02:45.224Z,3.05
2019-04-22T17:05:41.399Z,3.62
2019-04-22T17:08:12.210Z,3.40
2019-04-22T17:10:41.912Z,3.02
2019-04-22T17:13:17.499Z,2.72
2019-04-22T17:15:41.684Z,3.22
2019-04-22T17:18:10.607Z,2.98
2019-04-22T17:20:40.456Z,2.75
2019-04-22T17:23:09.680Z,2.20
2019-04-22T17:25:38.655Z,3.92
2019-04-22T17:28:07.842Z,3.87
2019-04-22T17:30:36.810Z,2.40
2019-04-22T17:33:05.826Z,2.58
2019-04-22T17:35:36.013Z,4.00
2019-04-22T17:40:52.245Z,4.40
2019-04-22T17:43:36.082Z,3.90
2019-04-22T17:46:12.035Z,3.02
2019-04-22T17:48:57.834Z,3.22
2019-04-22T17:51:31.428Z,3.27
2019-04-22T17:54:02.872Z,2.35
2019-04-22T17:56:33.970Z,3.05
2019-04-22T17:59:02.463Z,2.85
2019-04-22T18:01:35.671Z,1.98
2019-04-22T18:03:52.849Z,4.22
2019-04-22T18:06:46.945Z,2.05
2019-04-22T18:09:05.317Z,2.80
2019-04-22T18:12:01.091Z,2.37
2019-04-22T18:14:30.462Z,2.77
2019-04-22T18:16:41.280Z,2.15
2019-04-22T18:19:10.127Z,2.37
2019-04-22T18:21:36.151Z,2.10
2019-04-22T18:24:02.674Z,4.28
2019-04-22T18:26:43.511Z,5.22
2019-04-22T18:29:11.284Z,2.75
2019-04-22T18:31:38.572Z,2.65
2019-04-22T18:34:10.122Z,2.98
2019-04-22T18:36:40.525Z,3.00
2019-04-22T18:39:22.702Z,2.20
2019-04-22T18:41:43.982Z,2.58
2019-04-22T18:44:19.930Z,3.90
2019-04-22T18:46:50.950Z,2.12
2019-04-22T18:49:17.202Z,4.42
2019-04-22T18:51:51.839Z,2.20
2019-04-22T18:54:48.514Z,2.33
2019-04-22T18:57:20.778Z,3.72
2019-04-22T18:59:34.133Z,2.50
2019-04-22T19:02:05.364Z,4.80
2019-04-22T19:04:40.887Z,4.15
2019-04-22T19:07:33.197Z,2.60
2019-04-22T19:12:32.041Z,2.70
2019-04-22T19:14:57.033Z,4.28
2019-04-22T19:17:35.432Z,4.50
2019-04-22T19:20:02.847Z,3.05
2019-04-22T19:22:29.941Z,2.87
2019-04-22T19:24:54.691Z,3.33
2019-04-22T19:27:24.860Z,2.02
2019-04-22T19:30:07.479Z,3.33
2019-04-22T19:32:34.657Z,2.65
2019-04-22T19:34:57.152Z,3.35
2019-04-22T19:37:28.417Z,2.75
2019-04-22T19:40:09.493Z,2.10
2019-04-22T19:42:40.818Z,3.40
2019-04-22T19:45:02.617Z,2.50
2019-04-22T19:47:38.975Z,3.98
2019-04-22T19:50:15.036Z,2.50
2019-04-22T19:52:50.069Z,2.12
2019-04-22T19:55:11.002Z,2.30
2019-04-22T19:57:37.424Z,2.87
2019-04-22T20:00:11.060Z,3.45
2019-04-22T20:03:14.886Z,2.75
2019-04-22T20:05:43.891Z,4.50
2019-04-22T20:08:14.514Z,2.12
2019-04-22T20:10:46.125Z,3.08
2019-04-22T20:13:19.964Z,2.33
2019-04-22T20:15:41.145Z,3.20
2019-04-22T20:18:27.056Z,5.67
2019-04-22T20:20:56.116Z,2.98
2019-04-22T20:23:14.458Z,2.45
2019-04-22T20:25:44.547Z,2.65
2019-04-22T20:28:19.359Z,5.10
2019-04-22T20:30:50.580Z,3.37
2019-04-22T20:33:27.095Z,5.45
2019-04-22T20:35:55.846Z,2.27
2019-04-22T20:38:27.713Z,6.40
2019-04-22T20:40:55.681Z,4.15
2019-04-22T20:43:33.304Z,3.17
2019-04-22T20:45:57.721Z,1.87
2019-04-22T20:48:16.941Z,2.65
2019-04-22T20:50:57.835Z,3.15
2019-04-22T20:53:31.173Z,2.22
2019-04-22T20:56:00.700Z,2.87
2019-04-22T20:58:28.639Z,4.60
2019-04-22T21:00:53.050Z,3.42
2019-04-22T21:03:20.893Z,3.50
2019-04-22T21:05:53.054Z,2.80
2019-04-22T21:08:35.111Z,2.08
2019-04-22T21:10:50.986Z,2.98
2019-04-22T21:13:28.141Z,2.72
2019-04-22T21:16:09.405Z,2.75
2019-04-22T21:18:30.756Z,5.58
2019-04-22T21:21:09.631Z,2.70
2019-04-22T21:23:27.617Z,2.77
2019-04-22T21:26:11.076Z,4.40
2019-04-22T21:28:38.373Z,3.65
2019-04-22T21:31:14.860Z,2.95
2019-04-22T21:33:40.833Z,2.87
2019-04-22T21:38:42.448Z,4.75
2019-04-22T21:41:09.969Z,2.12
2019-04-22T21:43:44.956Z,3.52
2019-04-22T21:46:13.105Z,3.17
2019-04-22T21:48:59.716Z,3.25
2019-04-22T21:51:19.182Z,3.67
2019-04-22T21:53:52.529Z,3.65
2019-04-22T21:59:00.141Z,2.27
2019-04-22T22:01:35.510Z,3.62
2019-04-22T22:04:00.163Z,6.53
2019-04-22T22:06:23.510Z,2.90
2019-04-22T22:09:05.906Z,3.02
2019-04-22T22:11:27.786Z,3.67
2019-04-22T22:14:01.927Z,3.87
2019-04-22T22:16:30.820Z,2.95
2019-04-22T22:19:08.099Z,3.60
2019-04-22T22:24:10.139Z,3.55
2019-04-22T22:26:40.581Z,4.05
2019-04-22T22:29:10.413Z,4.45
2019-04-22T22:31:41.285Z,3.02
2019-04-22T22:34:09.746Z,2.95
2019-04-22T22:36:33.543Z,3.40
2019-04-22T22:39:04.000Z,3.87
2019-04-22T22:41:19.679Z,4.45
2019-04-22T22:43:51.120Z,2.95
2019-04-22T22:46:31.875Z,3.47
2019-04-22T22:49:09.838Z,2.80
2019-04-22T22:51:47.507Z,3.98
2019-04-22T22:54:16.525Z,3.58
2019-04-22T22:56:47.553Z,5.00
2019-04-22T22:59:18.561Z,3.17
2019-04-22T23:01:45.380Z,5.22
2019-04-22T23:04:20.906Z,2.98
2019-04-22T23:06:53.230Z,2.58
2019-04-22T23:09:13.386Z,4.45
2019-04-22T23:14:21.488Z,3.17
2019-04-22T23:16:37.788Z,2.92
2019-04-22T23:19:06.385Z,3.70
2019-04-22T23:21:42.753Z,2.85
2019-04-22T23:24:35.978Z,2.87
2019-04-22T23:27:04.385Z,4.20
2019-04-22T23:29:45.957Z,2.50
2019-04-22T23:32:22.720Z,5.08
2019-04-22T23:35:01.734Z,5.33
2019-04-22T23:37:28.939Z,4.40
2019-04-22T23:40:16.045Z,2.98
2019-04-22T23:42:41.104Z,2.83
2019-04-22T23:45:10.816Z,4.47
2019-04-22T23:47:49.923Z,3.52
2019-04-22T23:50:33.975Z,2.55
2019-04-22T23:53:04.837Z,2.55
2019-04-22T23:55:37.433Z,3.50
2019-04-22T23:58:02.716Z,4.35
